Burnt Corn, Alabama
Current Conditions -  °F | °C
As of 9:53 PM on Tuesday 25 Nov 2014 (Local Time) from KGZH Reporting Station
Clear Clear  
Wind Chill: 51°   Ceiling: Unl
Heat Index: 51°   Visibility: 10mi
Dew Point: 30°   Wind: 8mph
Humidity: 44%   Direction: 320°NW
Pressure: 30.12"   Gusts: NA
Location:  31.55°N, 87.16°W
Report Text: KGZH 260353Z AUTO 32007KT 270V340 10SM CLR 11/M01 A3012 RMK AO2 PRESRR SLP198 T01061011
Loading
Personal Weather Stations






























Interactive Weather Map New forecast layout! Learn more

10-Day Weather Forecast

Advertisements
Track Severe Weather on mobile